createdAt,value
2024-03-07T00:00:16.968Z,1.83
2024-03-07T00:10:18.840Z,1.72
2024-03-07T00:20:21.704Z,1.58
2024-03-07T00:30:23.581Z,1.47
2024-03-07T00:40:25.447Z,1.20
2024-03-07T00:50:27.349Z,0.91
2024-03-07T01:00:29.512Z,0.58
2024-03-07T01:10:31.449Z,0.21
2024-03-07T01:20:33.400Z,0.01
2024-03-07T01:30:35.162Z,-0.19
2024-03-07T01:40:36.906Z,-0.32
2024-03-07T01:50:41.512Z,-0.59
2024-03-07T02:00:45.147Z,-0.94
2024-03-07T02:10:47.466Z,-1.09
2024-03-07T02:20:49.805Z,-1.12
2024-03-07T02:30:51.625Z,-1.31
2024-03-07T02:40:53.497Z,-1.51
2024-03-07T02:50:55.309Z,-1.47
2024-03-07T03:01:01.128Z,-1.57
2024-03-07T03:11:02.981Z,-1.71
2024-03-07T03:21:04.946Z,-1.65
2024-03-07T03:31:06.790Z,-1.72
2024-03-07T03:41:08.586Z,-1.95
2024-03-07T03:51:10.867Z,-2.13
2024-03-07T04:01:16.028Z,-2.09
2024-03-07T04:11:18.262Z,-2.07
2024-03-07T04:21:20.410Z,-2.22
2024-03-07T04:31:22.014Z,-2.45
2024-03-07T04:41:24.707Z,-2.60
2024-03-07T04:51:26.736Z,-2.50
2024-03-07T05:01:28.316Z,-2.59
2024-03-07T05:11:33.880Z,-2.75
2024-03-07T05:21:39.472Z,-2.79
2024-03-07T05:31:52.097Z,-2.51
2024-03-07T05:41:55.741Z,-2.24
2024-03-07T05:51:59.399Z,-2.06
2024-03-07T06:02:01.192Z,-1.50
2024-03-07T06:12:10.148Z,-0.64
2024-03-07T06:22:18.564Z,-0.26
2024-03-07T06:32:20.471Z,0.06
2024-03-07T06:42:23.100Z,0.49
2024-03-07T06:52:24.933Z,1.00
2024-03-07T07:02:28.888Z,1.31
2024-03-07T07:12:30.815Z,1.59
2024-03-07T07:22:35.859Z,1.87
2024-03-07T07:32:38.031Z,2.21
2024-03-07T07:42:40.898Z,2.49
2024-03-07T07:52:51.495Z,2.76
2024-03-07T08:03:02.698Z,2.88
2024-03-07T08:13:11.480Z,3.22
2024-03-07T08:23:14.311Z,3.54
2024-03-07T08:33:16.289Z,3.63
2024-03-07T08:43:18.104Z,3.63
2024-03-07T08:53:20.052Z,3.40
2024-03-07T09:03:23.032Z,3.63
2024-03-07T09:13:25.515Z,4.22
2024-03-07T09:23:27.272Z,4.33
2024-03-07T09:33:29.500Z,4.41
2024-03-07T09:43:34.230Z,4.85
2024-03-07T09:53:38.319Z,4.92
2024-03-07T10:03:46.086Z,4.80
2024-03-07T10:13:50.410Z,4.58
2024-03-07T10:24:06.750Z,4.37
2024-03-07T10:34:09.321Z,4.48
2024-03-07T10:44:17.073Z,4.35
2024-03-07T10:54:35.679Z,4.17
2024-03-07T11:04:38.122Z,3.94
2024-03-07T11:14:41.649Z,3.87
2024-03-07T11:24:44.193Z,3.74
2024-03-07T11:34:49.273Z,3.67
2024-03-07T11:44:52.667Z,3.63
2024-03-07T11:54:54.809Z,3.64
2024-03-07T12:04:56.649Z,3.66
2024-03-07T12:14:58.767Z,3.71
2024-03-07T12:25:10.052Z,3.71
2024-03-07T12:35:13.767Z,3.80
2024-03-07T12:45:21.345Z,3.86
2024-03-07T12:55:23.232Z,3.86
2024-03-07T13:05:25.808Z,3.89
2024-03-07T13:15:27.581Z,3.94
2024-03-07T13:25:34.280Z,3.97
2024-03-07T13:35:37.305Z,3.96
2024-03-07T13:45:44.974Z,3.98
2024-03-07T13:55:55.544Z,4.04
2024-03-07T14:06:00.309Z,4.06
2024-03-07T14:16:24.974Z,4.07
2024-03-07T14:27:04.962Z,4.04
2024-03-07T14:37:24.967Z,4.03
2024-03-07T14:47:27.137Z,4.00
2024-03-07T14:57:28.957Z,3.90
2024-03-07T15:07:30.689Z,3.85
2024-03-07T15:17:32.500Z,3.73
2024-03-07T15:27:40.698Z,3.59
2024-03-07T15:37:42.687Z,3.45
2024-03-07T15:47:50.355Z,3.37
2024-03-07T15:57:54.772Z,3.21
2024-03-07T16:07:57.831Z,2.92
2024-03-07T16:18:00.730Z,2.67
2024-03-07T16:28:02.999Z,2.27
2024-03-07T16:38:05.443Z,1.74
2024-03-07T16:48:13.727Z,1.22
2024-03-07T16:58:17.370Z,0.72
2024-03-07T17:08:22.042Z,0.32
2024-03-07T17:18:26.085Z,-0.06
2024-03-07T17:28:30.310Z,-0.21
2024-03-07T17:38:34.421Z,-0.23
2024-03-07T17:48:37.737Z,-0.29
2024-03-07T17:58:39.868Z,-0.39
2024-03-07T18:08:46.014Z,-0.66
2024-03-07T18:18:55.726Z,-1.03
2024-03-07T18:28:57.539Z,-1.40
2024-03-07T18:38:59.349Z,-1.69
2024-03-07T18:49:01.181Z,-1.98
2024-03-07T18:59:09.180Z,-2.22
2024-03-07T19:09:14.008Z,-2.41
2024-03-07T19:19:18.317Z,-2.32
2024-03-07T19:29:22.279Z,-2.17
2024-03-07T19:39:24.841Z,-2.03
2024-03-07T19:49:29.260Z,-1.98
2024-03-07T19:59:31.057Z,-1.98
2024-03-07T20:09:32.761Z,-2.19
2024-03-07T20:19:34.981Z,-2.51
2024-03-07T20:29:36.823Z,-2.81
2024-03-07T20:39:41.963Z,-3.09
2024-03-07T20:49:47.304Z,-3.33
2024-03-07T20:59:49.012Z,-3.54
2024-03-07T21:09:50.776Z,-3.72
2024-03-07T21:19:53.011Z,-3.86
2024-03-07T21:29:54.902Z,-3.95
2024-03-07T21:39:57.672Z,-3.81
2024-03-07T21:49:59.759Z,-3.60
2024-03-07T22:00:01.619Z,-3.39
2024-03-07T22:10:12.981Z,-3.24
2024-03-07T22:20:20.137Z,-3.18
2024-03-07T22:30:23.282Z,-3.19
2024-03-07T22:40:28.974Z,-3.37
2024-03-07T22:50:31.879Z,-3.64
2024-03-07T23:00:34.009Z,-3.92
2024-03-07T23:10:36.119Z,-4.16
2024-03-07T23:20:38.720Z,-4.36
2024-03-07T23:30:40.597Z,-4.45
